Airfield :
LOGIN :

Register | Disclaimer

   EN    FR    IT 

 










Legend :    VFR   Marginal VFR   IFR   Intensive IFR   Very Intensive IFR
Visi :
Ceiling :
>= 8 km
>= 3000ft
5 to 8 km
1000 to 3000 ft
1500m to 5 km
500 to 1000 ft
800 to 1500m
200 to 500 ft
< 800m
< 200 ft
Symbols :   Thunderstorms  Fog  Heavy snow  Heavy precipitations  Wind > 20 kt
SIGMETs :     Misc.  Thunderstorms  Icing  Turbulence  Mountain Waves  Volcanic Ashes







- Airport Elevation : 257 ft
- IATA code : MAN
- Download approach charts


EGCC - Manchester

CURRENT METAR :
  • 161850Z 24010KT 9999 FEW038 SCT044 17/10 Q1013

EXPIRED METARs :
  • 161820Z AUTO 25010KT 9999 NCD 17/10 Q1013 NOSIG
  • 161750Z AUTO 24011KT 9999 NCD 17/10 Q1012 NOSIG
  • 161720Z AUTO 24013KT 9999 FEW049 17/10 Q1012 NOSIG
  • 161650Z AUTO 27008KT 9999 BKN049 17/10 Q1012 NOSIG
  • 161620Z AUTO 25010KT 9999 SCT049/// //////TCU 17/09 Q1012 TEMPO SHRA

TAF TAF EGCC
Valid from the 16 at 18:00 until the 18 at 00:00 UTC


161657Z 1618/1724 26009KT 9999 SCT040
PROB30
TEMPO 1618/1620 8000 -SHRA
PROB30
TEMPO 1717/1724 8000 -RA BKN014
ATIS : +44 161 499 2324
No reported NOTAMs for that airfield.



MET'MAP, your aeronautical weather chart ! - Copyright ORBIFLY December 2007 - Disclaimer

ORBIFLY MET'MAP TEAM :

Programming & Development : Alexandra Zaïnal
Concept & Development : Baudouin d'Aumeries
Co-Development & Prog : Marc-Olivier Méhu
Technical & hardware support : Manuel Goepfert

Contact : metmap@orbifly.com




SOURCES & CREDITS :

   NOAA